sensor_id;sensor_type;location;lat;lon;timestamp;pressure;altitude;pressure_sealevel;temperature;humidity
31092;BME280;17747;51.070;10.930;2022-10-28T00:00:16;101400.19;;;12.86;74.21
31092;BME280;17747;51.070;10.930;2022-10-28T00:01:49;101398.66;;;13.13;72.78
31092;BME280;17747;51.070;10.930;2022-10-28T00:03:20;101396.59;;;13.24;72.73
31092;BME280;17747;51.070;10.930;2022-10-28T00:04:51;101394.59;;;13.34;72.13
31092;BME280;17747;51.070;10.930;2022-10-28T00:06:23;101399.22;;;13.25;72.24
31092;BME280;17747;51.070;10.930;2022-10-28T00:07:53;101397.38;;;12.92;73.66
31092;BME280;17747;51.070;10.930;2022-10-28T00:09:25;101397.50;;;13.23;73.07
31092;BME280;17747;51.070;10.930;2022-10-28T00:11:03;101394.56;;;12.99;73.44
31092;BME280;17747;51.070;10.930;2022-10-28T00:12:34;101392.44;;;12.77;74.55
31092;BME280;17747;51.070;10.930;2022-10-28T00:14:06;101395.50;;;12.97;73.44
31092;BME280;17747;51.070;10.930;2022-10-28T00:15:37;101399.97;;;13.30;72.46
31092;BME280;17747;51.070;10.930;2022-10-28T00:17:09;101393.16;;;13.20;72.54
31092;BME280;17747;51.070;10.930;2022-10-28T00:18:40;101391.06;;;12.97;73.56
31092;BME280;17747;51.070;10.930;2022-10-28T00:20:12;101397.72;;;13.14;73.10
31092;BME280;17747;51.070;10.930;2022-10-28T00:21:44;101404.81;;;13.49;71.93
31092;BME280;17747;51.070;10.930;2022-10-28T00:23:16;101394.44;;;13.40;72.09
31092;BME280;17747;51.070;10.930;2022-10-28T00:24:47;101390.16;;;13.34;71.95
31092;BME280;17747;51.070;10.930;2022-10-28T00:26:19;101393.69;;;13.35;71.82
31092;BME280;17747;51.070;10.930;2022-10-28T00:27:51;101396.28;;;13.00;73.32
31092;BME280;17747;51.070;10.930;2022-10-28T00:29:21;101401.19;;;13.17;72.59
31092;BME280;17747;51.070;10.930;2022-10-28T00:30:53;101393.63;;;13.00;73.19
31092;BME280;17747;51.070;10.930;2022-10-28T00:32:26;101397.34;;;13.29;72.06
31092;BME280;17747;51.070;10.930;2022-10-28T00:33:59;101398.09;;;12.98;73.03
31092;BME280;17747;51.070;10.930;2022-10-28T00:35:31;101390.19;;;12.97;73.94
31092;BME280;17747;51.070;10.930;2022-10-28T00:37:01;101394.13;;;13.16;72.53
31092;BME280;17747;51.070;10.930;2022-10-28T00:38:32;101389.56;;;12.84;73.58
31092;BME280;17747;51.070;10.930;2022-10-28T00:40:03;101386.09;;;12.82;73.80
31092;BME280;17747;51.070;10.930;2022-10-28T00:41:36;101389.00;;;13.10;72.70
31092;BME280;17747;51.070;10.930;2022-10-28T00:43:08;101385.09;;;12.88;73.21
31092;BME280;17747;51.070;10.930;2022-10-28T00:44:51;101392.03;;;13.29;71.89
31092;BME280;17747;51.070;10.930;2022-10-28T00:46:25;101382.06;;;13.03;72.94
31092;BME280;17747;51.070;10.930;2022-10-28T00:47:59;101378.91;;;13.24;71.66
31092;BME280;17747;51.070;10.930;2022-10-28T00:49:32;101380.50;;;12.94;72.77
31092;BME280;17747;51.070;10.930;2022-10-28T00:51:03;101378.38;;;12.71;73.27
31092;BME280;17747;51.070;10.930;2022-10-28T00:52:35;101380.13;;;13.11;72.46
31092;BME280;17747;51.070;10.930;2022-10-28T00:54:07;101365.28;;;12.65;73.82
31092;BME280;17747;51.070;10.930;2022-10-28T00:55:38;101372.75;;;12.87;73.66
31092;BME280;17747;51.070;10.930;2022-10-28T00:57:09;101379.50;;;13.00;73.21
31092;BME280;17747;51.070;10.930;2022-10-28T00:58:42;101365.53;;;12.92;72.89
31092;BME280;17747;51.070;10.930;2022-10-28T01:00:14;101365.53;;;12.92;72.88
31092;BME280;17747;51.070;10.930;2022-10-28T01:01:44;101364.53;;;12.97;72.68
31092;BME280;17747;51.070;10.930;2022-10-28T01:03:17;101361.78;;;12.65;73.35
31092;BME280;17747;51.070;10.930;2022-10-28T01:04:49;101366.63;;;12.83;73.32
31092;BME280;17747;51.070;10.930;2022-10-28T01:06:19;101363.50;;;13.03;72.62
31092;BME280;17747;51.070;10.930;2022-10-28T01:07:52;101361.00;;;12.58;73.97
31092;BME280;17747;51.070;10.930;2022-10-28T01:09:23;101362.00;;;12.53;73.99
31092;BME280;17747;51.070;10.930;2022-10-28T01:11:04;101358.69;;;12.83;73.40
31092;BME280;17747;51.070;10.930;2022-10-28T01:12:40;101355.09;;;12.46;74.21
31092;BME280;17747;51.070;10.930;2022-10-28T01:14:17;101352.44;;;12.86;73.20
31092;BME280;17747;51.070;10.930;2022-10-28T01:15:53;101347.06;;;12.89;72.60
31092;BME280;17747;51.070;10.930;2022-10-28T01:17:29;101354.97;;;12.50;73.53
31092;BME280;17747;51.070;10.930;2022-10-28T01:19:11;101349.94;;;12.38;73.83
31092;BME280;17747;51.070;10.930;2022-10-28T01:22:37;101342.25;;;12.67;72.29
31092;BME280;17747;51.070;10.930;2022-10-28T01:24:14;101348.50;;;12.23;74.33
31092;BME280;17747;51.070;10.930;2022-10-28T01:25:56;101336.91;;;12.29;74.11
31092;BME280;17747;51.070;10.930;2022-10-28T01:27:35;101335.94;;;12.75;72.90
31092;BME280;17747;51.070;10.930;2022-10-28T01:29:23;101343.41;;;12.54;73.39
31092;BME280;17747;51.070;10.930;2022-10-28T01:31:03;101335.78;;;12.39;73.78
31092;BME280;17747;51.070;10.930;2022-10-28T01:32:49;101339.97;;;12.49;73.88
31092;BME280;17747;51.070;10.930;2022-10-28T01:34:24;101338.16;;;12.51;73.70
31092;BME280;17747;51.070;10.930;2022-10-28T01:35:59;101336.66;;;12.39;74.13
31092;BME280;17747;51.070;10.930;2022-10-28T01:37:35;101343.94;;;12.31;74.37
31092;BME280;17747;51.070;10.930;2022-10-28T01:39:10;101339.47;;;12.73;73.30
31092;BME280;17747;51.070;10.930;2022-10-28T01:40:44;101342.16;;;12.72;73.27
31092;BME280;17747;51.070;10.930;2022-10-28T01:42:19;101342.72;;;12.86;73.06
31092;BME280;17747;51.070;10.930;2022-10-28T01:43:56;101346.28;;;13.21;71.26
31092;BME280;17747;51.070;10.930;2022-10-28T01:45:29;101341.84;;;13.21;70.67
31092;BME280;17747;51.070;10.930;2022-10-28T01:47:07;101347.00;;;12.92;71.39
31092;BME280;17747;51.070;10.930;2022-10-28T01:48:40;101338.38;;;12.82;72.08
31092;BME280;17747;51.070;10.930;2022-10-28T01:50:17;101340.59;;;12.63;71.79
31092;BME280;17747;51.070;10.930;2022-10-28T01:51:50;101328.94;;;12.70;72.15
31092;BME280;17747;51.070;10.930;2022-10-28T01:53:26;101342.81;;;12.82;71.81
31092;BME280;17747;51.070;10.930;2022-10-28T01:55:00;101335.03;;;12.34;73.27
31092;BME280;17747;51.070;10.930;2022-10-28T01:56:35;101339.06;;;12.52;72.74
31092;BME280;17747;51.070;10.930;2022-10-28T01:58:08;101337.03;;;12.23;73.73
31092;BME280;17747;51.070;10.930;2022-10-28T01:59:40;101349.09;;;11.94;74.63
31092;BME280;17747;51.070;10.930;2022-10-28T02:01:13;101349.16;;;12.34;73.38
31092;BME280;17747;51.070;10.930;2022-10-28T02:02:46;101350.53;;;12.52;72.53
31092;BME280;17747;51.070;10.930;2022-10-28T02:04:18;101357.38;;;12.62;71.93
31092;BME280;17747;51.070;10.930;2022-10-28T02:05:51;101360.13;;;12.18;73.65
31092;BME280;17747;51.070;10.930;2022-10-28T02:07:23;101356.78;;;12.48;72.22
31092;BME280;17747;51.070;10.930;2022-10-28T02:08:59;101359.09;;;11.80;73.68
31092;BME280;17747;51.070;10.930;2022-10-28T02:10:34;101366.94;;;11.86;73.92
31092;BME280;17747;51.070;10.930;2022-10-28T02:14:03;101362.28;;;11.49;75.99
31092;BME280;17747;51.070;10.930;2022-10-28T02:15:38;101357.69;;;11.62;74.89
31092;BME280;17747;51.070;10.930;2022-10-28T02:17:13;101353.28;;;11.09;76.84
31092;BME280;17747;51.070;10.930;2022-10-28T02:18:53;101346.72;;;11.31;76.98
31092;BME280;17747;51.070;10.930;2022-10-28T02:20:31;101356.81;;;11.60;74.82
31092;BME280;17747;51.070;10.930;2022-10-28T02:22:08;101357.47;;;11.22;75.25
31092;BME280;17747;51.070;10.930;2022-10-28T02:23:44;101363.31;;;11.90;73.44
31092;BME280;17747;51.070;10.930;2022-10-28T02:25:18;101361.50;;;11.44;73.65
31092;BME280;17747;51.070;10.930;2022-10-28T02:26:51;101356.81;;;11.08;74.48
31092;BME280;17747;51.070;10.930;2022-10-28T02:28:29;101359.75;;;11.45;74.55
31092;BME280;17747;51.070;10.930;2022-10-28T02:30:03;101358.16;;;11.33;74.89
31092;BME280;17747;51.070;10.930;2022-10-28T02:31:36;101354.59;;;11.34;74.39
31092;BME280;17747;51.070;10.930;2022-10-28T02:33:10;101352.38;;;11.61;74.49
31092;BME280;17747;51.070;10.930;2022-10-28T02:34:43;101352.59;;;11.95;73.16
31092;BME280;17747;51.070;10.930;2022-10-28T02:36:16;101347.97;;;12.06;72.97
31092;BME280;17747;51.070;10.930;2022-10-28T02:37:49;101344.91;;;11.84;74.37
31092;BME280;17747;51.070;10.930;2022-10-28T02:39:23;101357.00;;;11.97;74.53
31092;BME280;17747;51.070;10.930;2022-10-28T02:40:57;101345.72;;;12.31;73.23
31092;BME280;17747;51.070;10.930;2022-10-28T02:42:31;101351.88;;;11.88;73.62
31092;BME280;17747;51.070;10.930;2022-10-28T02:44:05;101337.84;;;11.83;74.73
31092;BME280;17747;51.070;10.930;2022-10-28T02:45:38;101349.72;;;11.61;76.31
31092;BME280;17747;51.070;10.930;2022-10-28T02:47:12;101339.63;;;11.84;74.41
31092;BME280;17747;51.070;10.930;2022-10-28T02:48:45;101340.41;;;11.38;74.03
31092;BME280;17747;51.070;10.930;2022-10-28T02:50:20;101334.16;;;10.91;75.82
31092;BME280;17747;51.070;10.930;2022-10-28T02:51:55;101338.59;;;10.89;76.81
31092;BME280;17747;51.070;10.930;2022-10-28T02:53:29;101343.38;;;11.21;75.45
31092;BME280;17747;51.070;10.930;2022-10-28T02:55:01;101340.53;;;11.32;75.52
31092;BME280;17747;51.070;10.930;2022-10-28T02:56:35;101346.03;;;11.71;73.49
31092;BME280;17747;51.070;10.930;2022-10-28T02:58:07;101346.63;;;11.36;73.44
31092;BME280;17747;51.070;10.930;2022-10-28T02:59:39;101341.28;;;11.40;73.99
31092;BME280;17747;51.070;10.930;2022-10-28T03:01:11;101340.03;;;11.63;73.74
31092;BME280;17747;51.070;10.930;2022-10-28T03:02:42;101340.25;;;11.50;74.29
31092;BME280;17747;51.070;10.930;2022-10-28T03:04:14;101344.84;;;11.87;72.61
31092;BME280;17747;51.070;10.930;2022-10-28T03:05:47;101342.78;;;12.01;71.86
31092;BME280;17747;51.070;10.930;2022-10-28T03:07:18;101340.97;;;12.03;71.09
31092;BME280;17747;51.070;10.930;2022-10-28T03:08:50;101336.72;;;11.48;72.14
31092;BME280;17747;51.070;10.930;2022-10-28T03:10:20;101356.13;;;11.49;72.00
31092;BME280;17747;51.070;10.930;2022-10-28T03:11:52;101361.66;;;11.34;72.03
31092;BME280;17747;51.070;10.930;2022-10-28T03:13:23;101371.84;;;11.58;71.42
31092;BME280;17747;51.070;10.930;2022-10-28T03:14:54;101368.28;;;11.59;70.91
31092;BME280;17747;51.070;10.930;2022-10-28T03:16:25;101364.84;;;11.02;73.23
31092;BME280;17747;51.070;10.930;2022-10-28T03:17:56;101360.78;;;11.33;73.22
31092;BME280;17747;51.070;10.930;2022-10-28T03:19:27;101346.94;;;11.19;74.34
31092;BME280;17747;51.070;10.930;2022-10-28T03:20:59;101350.44;;;11.21;75.18
31092;BME280;17747;51.070;10.930;2022-10-28T03:22:31;101351.91;;;11.36;74.55
31092;BME280;17747;51.070;10.930;2022-10-28T03:24:02;101360.44;;;11.54;74.17
31092;BME280;17747;51.070;10.930;2022-10-28T03:25:33;101354.25;;;11.55;74.40
31092;BME280;17747;51.070;10.930;2022-10-28T03:27:05;101346.66;;;11.34;76.40
31092;BME280;17747;51.070;10.930;2022-10-28T03:28:36;101348.44;;;11.34;75.76
31092;BME280;17747;51.070;10.930;2022-10-28T03:30:08;101351.97;;;11.82;74.41
31092;BME280;17747;51.070;10.930;2022-10-28T03:31:40;101349.88;;;11.99;73.28
31092;BME280;17747;51.070;10.930;2022-10-28T03:33:10;101350.00;;;11.93;72.98
31092;BME280;17747;51.070;10.930;2022-10-28T03:34:41;101353.81;;;11.78;73.25
31092;BME280;17747;51.070;10.930;2022-10-28T03:36:13;101357.81;;;12.01;72.80
31092;BME280;17747;51.070;10.930;2022-10-28T03:37:44;101357.50;;;11.70;73.60
31092;BME280;17747;51.070;10.930;2022-10-28T03:39:16;101351.06;;;11.83;73.82
31092;BME280;17747;51.070;10.930;2022-10-28T03:40:46;101347.06;;;11.64;74.32
31092;BME280;17747;51.070;10.930;2022-10-28T03:42:18;101349.06;;;11.51;73.89
31092;BME280;17747;51.070;10.930;2022-10-28T03:43:49;101351.06;;;10.80;75.42
31092;BME280;17747;51.070;10.930;2022-10-28T03:45:21;101346.97;;;10.59;76.46
31092;BME280;17747;51.070;10.930;2022-10-28T03:46:51;101348.69;;;10.63;77.24
31092;BME280;17747;51.070;10.930;2022-10-28T03:48:22;101353.84;;;10.72;76.79
31092;BME280;17747;51.070;10.930;2022-10-28T03:49:54;101346.09;;;10.58;78.03
31092;BME280;17747;51.070;10.930;2022-10-28T03:51:25;101347.94;;;11.10;75.95
31092;BME280;17747;51.070;10.930;2022-10-28T03:52:57;101346.44;;;10.95;76.39
31092;BME280;17747;51.070;10.930;2022-10-28T03:54:28;101346.09;;;11.17;75.05
31092;BME280;17747;51.070;10.930;2022-10-28T03:56:00;101337.47;;;10.46;77.17
31092;BME280;17747;51.070;10.930;2022-10-28T03:57:31;101338.78;;;10.77;78.23
31092;BME280;17747;51.070;10.930;2022-10-28T03:59:03;101340.50;;;10.80;78.65
31092;BME280;17747;51.070;10.930;2022-10-28T04:00:34;101344.38;;;11.13;78.00
31092;BME280;17747;51.070;10.930;2022-10-28T04:02:05;101341.22;;;11.43;75.47
31092;BME280;17747;51.070;10.930;2022-10-28T04:03:37;101332.19;;;11.04;77.09
31092;BME280;17747;51.070;10.930;2022-10-28T04:05:08;101347.47;;;11.39;76.70
31092;BME280;17747;51.070;10.930;2022-10-28T04:06:41;101347.69;;;11.27;75.85
31092;BME280;17747;51.070;10.930;2022-10-28T04:08:12;101339.63;;;11.33;74.83
31092;BME280;17747;51.070;10.930;2022-10-28T04:09:44;101335.66;;;11.08;76.24
31092;BME280;17747;51.070;10.930;2022-10-28T04:11:18;101327.59;;;11.17;75.98
31092;BME280;17747;51.070;10.930;2022-10-28T04:12:50;101325.16;;;11.03;76.51
31092;BME280;17747;51.070;10.930;2022-10-28T04:14:21;101323.50;;;10.97;76.99
31092;BME280;17747;51.070;10.930;2022-10-28T04:15:51;101311.25;;;11.43;76.03
31092;BME280;17747;51.070;10.930;2022-10-28T04:17:23;101306.78;;;10.95;78.10
31092;BME280;17747;51.070;10.930;2022-10-28T04:18:54;101308.03;;;11.25;77.73
31092;BME280;17747;51.070;10.930;2022-10-28T04:20:25;101309.06;;;11.17;77.38
31092;BME280;17747;51.070;10.930;2022-10-28T04:21:58;101299.28;;;11.70;75.51
31092;BME280;17747;51.070;10.930;2022-10-28T04:23:29;101292.97;;;11.77;75.55
31092;BME280;17747;51.070;10.930;2022-10-28T04:25:01;101295.00;;;12.06;74.87
31092;BME280;17747;51.070;10.930;2022-10-28T04:26:32;101299.00;;;12.25;74.00
31092;BME280;17747;51.070;10.930;2022-10-28T04:28:03;101290.22;;;12.23;74.43
31092;BME280;17747;51.070;10.930;2022-10-28T04:29:35;101288.69;;;12.13;75.20
31092;BME280;17747;51.070;10.930;2022-10-28T04:31:06;101280.28;;;12.34;74.25
31092;BME280;17747;51.070;10.930;2022-10-28T04:32:39;101297.94;;;12.34;75.21
31092;BME280;17747;51.070;10.930;2022-10-28T04:34:10;101302.81;;;12.54;74.19
31092;BME280;17747;51.070;10.930;2022-10-28T04:35:41;101301.06;;;12.51;73.77
31092;BME280;17747;51.070;10.930;2022-10-28T04:37:14;101306.25;;;12.57;73.86
31092;BME280;17747;51.070;10.930;2022-10-28T04:38:45;101310.66;;;12.17;74.80
31092;BME280;17747;51.070;10.930;2022-10-28T04:40:16;101299.69;;;12.35;75.21
31092;BME280;17747;51.070;10.930;2022-10-28T04:41:47;101299.84;;;12.27;75.06
31092;BME280;17747;51.070;10.930;2022-10-28T04:43:19;101298.03;;;12.31;74.98
31092;BME280;17747;51.070;10.930;2022-10-28T04:44:50;101300.97;;;12.56;74.87
31092;BME280;17747;51.070;10.930;2022-10-28T04:46:21;101290.75;;;12.39;74.80
31092;BME280;17747;51.070;10.930;2022-10-28T04:47:55;101306.75;;;12.75;74.15
31092;BME280;17747;51.070;10.930;2022-10-28T04:49:26;101304.03;;;12.37;75.02
31092;BME280;17747;51.070;10.930;2022-10-28T04:50:58;101301.06;;;12.51;75.20
31092;BME280;17747;51.070;10.930;2022-10-28T04:52:30;101300.66;;;12.71;74.14
31092;BME280;17747;51.070;10.930;2022-10-28T04:54:02;101293.63;;;12.68;73.26
31092;BME280;17747;51.070;10.930;2022-10-28T04:55:33;101287.84;;;12.50;74.35
31092;BME280;17747;51.070;10.930;2022-10-28T04:57:05;101282.66;;;12.84;73.99
31092;BME280;17747;51.070;10.930;2022-10-28T04:58:36;101285.00;;;12.59;73.95
31092;BME280;17747;51.070;10.930;2022-10-28T05:00:08;101279.59;;;13.00;72.96
31092;BME280;17747;51.070;10.930;2022-10-28T05:01:39;101271.84;;;12.56;74.41
31092;BME280;17747;51.070;10.930;2022-10-28T05:03:10;101272.03;;;12.47;74.89
31092;BME280;17747;51.070;10.930;2022-10-28T05:04:42;101257.09;;;12.81;73.52
31092;BME280;17747;51.070;10.930;2022-10-28T05:06:13;101257.44;;;12.67;73.92
31092;BME280;17747;51.070;10.930;2022-10-28T05:07:46;101249.34;;;11.96;75.54
31092;BME280;17747;51.070;10.930;2022-10-28T05:09:17;101237.44;;;11.75;77.29
31092;BME280;17747;51.070;10.930;2022-10-28T05:10:48;101237.13;;;11.89;77.02
31092;BME280;17747;51.070;10.930;2022-10-28T05:12:20;101231.44;;;12.07;76.19
31092;BME280;17747;51.070;10.930;2022-10-28T05:13:51;101231.28;;;12.13;76.04
31092;BME280;17747;51.070;10.930;2022-10-28T05:15:23;101223.50;;;12.06;76.03
31092;BME280;17747;51.070;10.930;2022-10-28T05:16:55;101221.63;;;11.71;77.72
31092;BME280;17747;51.070;10.930;2022-10-28T05:18:26;101210.09;;;11.75;77.65
31092;BME280;17747;51.070;10.930;2022-10-28T05:19:58;101200.19;;;11.84;77.59
31092;BME280;17747;51.070;10.930;2022-10-28T05:21:29;101197.72;;;12.14;76.23
31092;BME280;17747;51.070;10.930;2022-10-28T05:23:02;101202.97;;;12.54;74.60
31092;BME280;17747;51.070;10.930;2022-10-28T05:24:33;101207.88;;;12.71;73.47
31092;BME280;17747;51.070;10.930;2022-10-28T05:26:04;101210.84;;;12.57;73.57
31092;BME280;17747;51.070;10.930;2022-10-28T05:27:36;101206.16;;;12.68;73.88
31092;BME280;17747;51.070;10.930;2022-10-28T05:29:07;101213.03;;;12.77;72.95
31092;BME280;17747;51.070;10.930;2022-10-28T05:30:39;101221.44;;;12.20;75.07
31092;BME280;17747;51.070;10.930;2022-10-28T05:32:10;101220.78;;;12.48;74.75
31092;BME280;17747;51.070;10.930;2022-10-28T05:33:42;101228.06;;;12.77;73.47
31092;BME280;17747;51.070;10.930;2022-10-28T05:35:13;101233.41;;;13.08;72.13
31092;BME280;17747;51.070;10.930;2022-10-28T05:36:45;101233.28;;;13.14;71.59
31092;BME280;17747;51.070;10.930;2022-10-28T05:38:18;101235.78;;;13.20;71.55
31092;BME280;17747;51.070;10.930;2022-10-28T05:39:49;101247.06;;;13.26;70.97
31092;BME280;17747;51.070;10.930;2022-10-28T05:41:20;101247.25;;;13.20;71.25
31092;BME280;17747;51.070;10.930;2022-10-28T05:42:52;101260.53;;;13.20;71.18
31092;BME280;17747;51.070;10.930;2022-10-28T05:44:23;101264.06;;;13.19;71.06
31092;BME280;17747;51.070;10.930;2022-10-28T05:45:55;101273.88;;;13.16;71.27
31092;BME280;17747;51.070;10.930;2022-10-28T05:47:27;101265.28;;;13.06;71.51
31092;BME280;17747;51.070;10.930;2022-10-28T05:48:59;101264.56;;;13.01;72.10
31092;BME280;17747;51.070;10.930;2022-10-28T05:50:30;101266.47;;;12.94;72.25
31092;BME280;17747;51.070;10.930;2022-10-28T05:52:02;101269.13;;;12.94;72.46
31092;BME280;17747;51.070;10.930;2022-10-28T05:53:34;101269.56;;;12.39;74.24
31092;BME280;17747;51.070;10.930;2022-10-28T05:55:06;101270.00;;;12.58;74.21
31092;BME280;17747;51.070;10.930;2022-10-28T05:56:37;101268.03;;;12.67;74.35
31092;BME280;17747;51.070;10.930;2022-10-28T05:58:09;101270.78;;;12.64;73.97
31092;BME280;17747;51.070;10.930;2022-10-28T05:59:40;101276.00;;;12.67;73.88
31092;BME280;17747;51.070;10.930;2022-10-28T06:01:12;101269.31;;;12.88;73.29
31092;BME280;17747;51.070;10.930;2022-10-28T06:02:43;101280.25;;;13.10;72.46
31092;BME280;17747;51.070;10.930;2022-10-28T06:04:14;101277.34;;;12.84;73.10
31092;BME280;17747;51.070;10.930;2022-10-28T06:05:46;101271.47;;;13.07;72.20
31092;BME280;17747;51.070;10.930;2022-10-28T06:07:18;101273.75;;;12.88;73.33
31092;BME280;17747;51.070;10.930;2022-10-28T06:08:50;101266.13;;;13.08;72.61
31092;BME280;17747;51.070;10.930;2022-10-28T06:10:22;101268.72;;;13.11;72.62
31092;BME280;17747;51.070;10.930;2022-10-28T06:11:53;101268.63;;;13.14;72.20
31092;BME280;17747;51.070;10.930;2022-10-28T06:13:24;101266.44;;;12.60;73.47
31092;BME280;17747;51.070;10.930;2022-10-28T06:14:56;101258.25;;;13.05;72.92
31092;BME280;17747;51.070;10.930;2022-10-28T06:16:27;101258.19;;;13.07;72.50
31092;BME280;17747;51.070;10.930;2022-10-28T06:17:58;101247.19;;;12.89;72.82
31092;BME280;17747;51.070;10.930;2022-10-28T06:19:30;101246.94;;;12.98;73.24
31092;BME280;17747;51.070;10.930;2022-10-28T06:21:01;101242.69;;;12.91;73.49
31092;BME280;17747;51.070;10.930;2022-10-28T06:22:33;101243.72;;;13.20;72.55
31092;BME280;17747;51.070;10.930;2022-10-28T06:24:06;101249.63;;;13.29;72.20
31092;BME280;17747;51.070;10.930;2022-10-28T06:25:37;101250.34;;;13.36;71.84
31092;BME280;17747;51.070;10.930;2022-10-28T06:27:09;101252.22;;;13.00;72.40
31092;BME280;17747;51.070;10.930;2022-10-28T06:28:40;101248.31;;;12.79;73.57
31092;BME280;17747;51.070;10.930;2022-10-28T06:30:12;101253.16;;;12.97;73.47
31092;BME280;17747;51.070;10.930;2022-10-28T06:31:43;101256.78;;;12.93;73.02
31092;BME280;17747;51.070;10.930;2022-10-28T06:33:15;101251.75;;;12.83;73.88
31092;BME280;17747;51.070;10.930;2022-10-28T06:34:46;101253.94;;;13.01;73.59
31092;BME280;17747;51.070;10.930;2022-10-28T06:36:17;101257.78;;;12.89;73.56
31092;BME280;17747;51.070;10.930;2022-10-28T06:37:52;101258.16;;;13.08;73.08
31092;BME280;17747;51.070;10.930;2022-10-28T06:39:24;101257.78;;;13.23;72.40
31092;BME280;17747;51.070;10.930;2022-10-28T06:40:56;101253.50;;;13.18;72.36
31092;BME280;17747;51.070;10.930;2022-10-28T06:42:28;101261.34;;;13.22;72.31
31092;BME280;17747;51.070;10.930;2022-10-28T06:43:59;101264.16;;;13.16;72.46
31092;BME280;17747;51.070;10.930;2022-10-28T06:45:32;101264.31;;;13.10;72.75
31092;BME280;17747;51.070;10.930;2022-10-28T06:47:03;101271.13;;;13.20;72.37
31092;BME280;17747;51.070;10.930;2022-10-28T06:48:35;101274.88;;;13.46;71.64
31092;BME280;17747;51.070;10.930;2022-10-28T06:50:07;101281.00;;;13.48;71.16
31092;BME280;17747;51.070;10.930;2022-10-28T06:51:38;101281.09;;;13.77;70.35
31092;BME280;17747;51.070;10.930;2022-10-28T06:53:09;101274.63;;;13.86;70.12
31092;BME280;17747;51.070;10.930;2022-10-28T06:54:42;101288.00;;;13.83;70.00
31092;BME280;17747;51.070;10.930;2022-10-28T06:56:14;101292.28;;;13.87;69.72
31092;BME280;17747;51.070;10.930;2022-10-28T06:57:45;101287.91;;;13.86;70.07
31092;BME280;17747;51.070;10.930;2022-10-28T06:59:16;101306.13;;;14.00;69.61
31092;BME280;17747;51.070;10.930;2022-10-28T07:00:48;101319.84;;;14.14;69.04
31092;BME280;17747;51.070;10.930;2022-10-28T07:02:19;101310.06;;;14.16;69.03
31092;BME280;17747;51.070;10.930;2022-10-28T07:03:51;101316.38;;;14.12;68.95
31092;BME280;17747;51.070;10.930;2022-10-28T07:05:22;101318.25;;;13.45;71.29
31092;BME280;17747;51.070;10.930;2022-10-28T07:06:55;101319.56;;;13.61;70.87
31092;BME280;17747;51.070;10.930;2022-10-28T07:08:26;101325.19;;;13.83;70.08
31092;BME280;17747;51.070;10.930;2022-10-28T07:09:59;101311.97;;;13.47;71.14
31092;BME280;17747;51.070;10.930;2022-10-28T07:11:31;101316.31;;;13.50;71.44
31092;BME280;17747;51.070;10.930;2022-10-28T07:13:02;101316.19;;;13.87;70.40
31092;BME280;17747;51.070;10.930;2022-10-28T07:14:33;101317.03;;;13.56;70.77
31092;BME280;17747;51.070;10.930;2022-10-28T07:16:05;101293.69;;;13.37;71.53
31092;BME280;17747;51.070;10.930;2022-10-28T07:17:36;101289.78;;;13.50;71.60
31092;BME280;17747;51.070;10.930;2022-10-28T07:19:08;101275.72;;;13.46;72.32
31092;BME280;17747;51.070;10.930;2022-10-28T07:20:39;101301.63;;;14.02;70.67
31092;BME280;17747;51.070;10.930;2022-10-28T07:22:11;101317.97;;;13.86;70.37
31092;BME280;17747;51.070;10.930;2022-10-28T07:23:42;101325.44;;;14.05;70.31
31092;BME280;17747;51.070;10.930;2022-10-28T07:25:15;101327.06;;;14.09;70.06
31092;BME280;17747;51.070;10.930;2022-10-28T07:26:46;101299.94;;;13.68;71.34
31092;BME280;17747;51.070;10.930;2022-10-28T07:28:18;101278.78;;;12.98;73.92
31092;BME280;17747;51.070;10.930;2022-10-28T07:29:49;101236.22;;;13.03;74.53
31092;BME280;17747;51.070;10.930;2022-10-28T07:31:21;101241.09;;;13.18;73.68
31092;BME280;17747;51.070;10.930;2022-10-28T07:32:52;101219.97;;;13.15;74.03
31092;BME280;17747;51.070;10.930;2022-10-28T07:34:23;101233.91;;;13.23;73.69
31092;BME280;17747;51.070;10.930;2022-10-28T07:35:55;101225.13;;;12.87;75.12
31092;BME280;17747;51.070;10.930;2022-10-28T07:37:26;101201.88;;;12.98;75.28
31092;BME280;17747;51.070;10.930;2022-10-28T07:38:57;101200.00;;;13.02;75.16
31092;BME280;17747;51.070;10.930;2022-10-28T07:40:30;101193.69;;;13.06;75.09
31092;BME280;17747;51.070;10.930;2022-10-28T07:42:02;101186.19;;;13.22;74.65
31092;BME280;17747;51.070;10.930;2022-10-28T07:43:36;101196.75;;;13.23;74.53
31092;BME280;17747;51.070;10.930;2022-10-28T07:45:08;101198.97;;;13.39;74.33
31092;BME280;17747;51.070;10.930;2022-10-28T07:46:39;101199.22;;;13.29;73.96
31092;BME280;17747;51.070;10.930;2022-10-28T07:48:10;101202.59;;;13.36;74.05
31092;BME280;17747;51.070;10.930;2022-10-28T07:49:42;101203.47;;;13.37;73.82
31092;BME280;17747;51.070;10.930;2022-10-28T07:51:13;101207.13;;;13.33;74.01
31092;BME280;17747;51.070;10.930;2022-10-28T07:52:45;101214.50;;;13.52;73.53
31092;BME280;17747;51.070;10.930;2022-10-28T07:54:17;101216.69;;;13.38;73.84
31092;BME280;17747;51.070;10.930;2022-10-28T07:55:54;101217.56;;;13.39;73.77
31092;BME280;17747;51.070;10.930;2022-10-28T07:57:26;101221.06;;;13.72;73.05
31092;BME280;17747;51.070;10.930;2022-10-28T07:58:58;101229.03;;;14.01;71.95
31092;BME280;17747;51.070;10.930;2022-10-28T08:00:30;101226.53;;;14.25;71.04